Main page
METAR-TAF:

METAR-TAF

Airports :

Oban Airport

Oban, Scotland

latitude: 56-27-49N, longitude: 5-24-00W, elevation: 7 m

Current weather observation

The report was made 27 minutes ago, at 15:20 UTC
Wind 21 kt from the West/Northwest
Temperature 11°C
Humidity 71%
Pressure 1026 hPa
Visibility 10 km or more
Few clouds at a height of 2600 ft
Scattered clouds at a height of 4800 ft

METAR: EGEO 211520Z 29021KT 9999 FEW026 SCT048 11/06 Q1026

Time: 16:47 (15:47 UTC)

Forecast

The report was made 1 hour and 50 minutes ago, at 13:57 UTC
Forecast valid from 21 at 15 UTC to 21 at 17 UTC
Wind 9 kt from the West/Southwest
Visibility 10 km or more
Scattered clouds at a height of 2500 ft
Temporary
from 21 at 15 UTC to 21 at 17 UTC
Wind 15 kt from the West with gusts up to 25 kt

TAF: EGEO 211357Z 2115/2117 25009KT 9999 SCT025 TEMPO 2115/2117 28015G25KT

Weather observations and forecasts of more than 4000 airports (METAR and TAF reports).

The available stations are represented by yellow and red dots on the map.

Hover mouse over dot to see the name of the station.

Then click to see weather observations and forecasts.

To change the map : click on the green buttons with a black cross to zoom in, on the green button with a dash to zoom out, or on the green arrows for adjacent maps.


METAR-TAF: